sensor_id;sensor_type;location;lat;lon;timestamp;temperature;humidity
16781;DHT22;8507;50.056;8.248;2023-07-22T00:00:43;16.90;99.90
16781;DHT22;8507;50.056;8.248;2023-07-22T00:03:09;16.80;99.90
16781;DHT22;8507;50.056;8.248;2023-07-22T00:05:34;16.80;99.90
16781;DHT22;8507;50.056;8.248;2023-07-22T00:08:00;16.80;99.90
16781;DHT22;8507;50.056;8.248;2023-07-22T00:10:25;17.00;99.90
16781;DHT22;8507;50.056;8.248;2023-07-22T00:12:51;17.10;99.90
16781;DHT22;8507;50.056;8.248;2023-07-22T00:15:16;17.10;99.90
16781;DHT22;8507;50.056;8.248;2023-07-22T00:17:42;17.10;99.90
16781;DHT22;8507;50.056;8.248;2023-07-22T00:20:09;17.00;99.90
16781;DHT22;8507;50.056;8.248;2023-07-22T00:22:40;16.80;99.90
16781;DHT22;8507;50.056;8.248;2023-07-22T00:25:07;16.80;99.90
16781;DHT22;8507;50.056;8.248;2023-07-22T00:27:35;16.60;99.90
16781;DHT22;8507;50.056;8.248;2023-07-22T00:30:01;16.40;99.90
16781;DHT22;8507;50.056;8.248;2023-07-22T00:32:26;16.30;99.90
16781;DHT22;8507;50.056;8.248;2023-07-22T00:34:52;16.20;99.90
16781;DHT22;8507;50.056;8.248;2023-07-22T00:37:17;16.10;99.90
16781;DHT22;8507;50.056;8.248;2023-07-22T00:39:43;15.90;99.90
16781;DHT22;8507;50.056;8.248;2023-07-22T00:42:08;15.80;99.90
16781;DHT22;8507;50.056;8.248;2023-07-22T00:44:34;15.70;99.90
16781;DHT22;8507;50.056;8.248;2023-07-22T00:47:00;15.60;99.90
16781;DHT22;8507;50.056;8.248;2023-07-22T00:49:27;15.50;99.90
16781;DHT22;8507;50.056;8.248;2023-07-22T00:51:57;15.50;99.90
16781;DHT22;8507;50.056;8.248;2023-07-22T00:54:25;15.50;99.90
16781;DHT22;8507;50.056;8.248;2023-07-22T00:56:51;15.40;99.90
16781;DHT22;8507;50.056;8.248;2023-07-22T00:59:17;15.40;99.90
16781;DHT22;8507;50.056;8.248;2023-07-22T01:01:43;15.30;99.90
16781;DHT22;8507;50.056;8.248;2023-07-22T01:04:08;15.40;99.90
16781;DHT22;8507;50.056;8.248;2023-07-22T01:06:35;15.50;99.90
16781;DHT22;8507;50.056;8.248;2023-07-22T01:09:00;15.60;99.90
16781;DHT22;8507;50.056;8.248;2023-07-22T01:11:26;15.80;99.90
16781;DHT22;8507;50.056;8.248;2023-07-22T01:13:52;15.70;99.90
16781;DHT22;8507;50.056;8.248;2023-07-22T01:16:24;15.70;99.90
16781;DHT22;8507;50.056;8.248;2023-07-22T01:18:49;15.80;99.90
16781;DHT22;8507;50.056;8.248;2023-07-22T01:21:15;15.90;99.90
16781;DHT22;8507;50.056;8.248;2023-07-22T01:23:42;16.00;99.90
16781;DHT22;8507;50.056;8.248;2023-07-22T01:26:08;16.00;99.90
16781;DHT22;8507;50.056;8.248;2023-07-22T01:28:35;16.00;99.90
16781;DHT22;8507;50.056;8.248;2023-07-22T01:31:01;15.80;99.90
16781;DHT22;8507;50.056;8.248;2023-07-22T01:33:26;15.70;99.90
16781;DHT22;8507;50.056;8.248;2023-07-22T01:35:52;15.70;99.90
16781;DHT22;8507;50.056;8.248;2023-07-22T01:38:18;15.70;99.90
16781;DHT22;8507;50.056;8.248;2023-07-22T01:40:44;15.70;99.90
16781;DHT22;8507;50.056;8.248;2023-07-22T01:43:10;15.90;99.90
16781;DHT22;8507;50.056;8.248;2023-07-22T01:45:35;15.90;99.90
16781;DHT22;8507;50.056;8.248;2023-07-22T01:48:03;15.90;99.90
16781;DHT22;8507;50.056;8.248;2023-07-22T01:50:28;15.90;99.90
16781;DHT22;8507;50.056;8.248;2023-07-22T01:52:54;15.90;99.90
16781;DHT22;8507;50.056;8.248;2023-07-22T01:55:20;15.80;99.90
16781;DHT22;8507;50.056;8.248;2023-07-22T01:57:46;15.90;99.90
16781;DHT22;8507;50.056;8.248;2023-07-22T02:00:12;15.90;99.90
16781;DHT22;8507;50.056;8.248;2023-07-22T02:02:37;15.90;99.90
16781;DHT22;8507;50.056;8.248;2023-07-22T02:05:03;15.80;99.90
16781;DHT22;8507;50.056;8.248;2023-07-22T02:07:29;15.70;99.90
16781;DHT22;8507;50.056;8.248;2023-07-22T02:09:55;15.70;99.90
16781;DHT22;8507;50.056;8.248;2023-07-22T02:12:20;15.60;99.90
16781;DHT22;8507;50.056;8.248;2023-07-22T02:14:46;15.70;99.90
16781;DHT22;8507;50.056;8.248;2023-07-22T02:17:11;15.70;99.90
16781;DHT22;8507;50.056;8.248;2023-07-22T02:19:37;15.70;99.90
16781;DHT22;8507;50.056;8.248;2023-07-22T02:22:04;15.70;99.90
16781;DHT22;8507;50.056;8.248;2023-07-22T02:24:30;15.70;99.90
16781;DHT22;8507;50.056;8.248;2023-07-22T02:26:55;15.70;99.90
16781;DHT22;8507;50.056;8.248;2023-07-22T02:29:21;15.70;99.90
16781;DHT22;8507;50.056;8.248;2023-07-22T02:31:46;15.60;99.90
16781;DHT22;8507;50.056;8.248;2023-07-22T02:34:12;15.50;99.90
16781;DHT22;8507;50.056;8.248;2023-07-22T02:36:37;15.40;99.90
16781;DHT22;8507;50.056;8.248;2023-07-22T02:39:03;15.20;99.90
16781;DHT22;8507;50.056;8.248;2023-07-22T02:41:29;15.10;99.90
16781;DHT22;8507;50.056;8.248;2023-07-22T02:43:54;15.00;99.90
16781;DHT22;8507;50.056;8.248;2023-07-22T02:46:20;15.00;99.90
16781;DHT22;8507;50.056;8.248;2023-07-22T02:48:45;15.10;99.90
16781;DHT22;8507;50.056;8.248;2023-07-22T02:51:11;15.20;99.90
16781;DHT22;8507;50.056;8.248;2023-07-22T02:53:37;15.20;99.90
16781;DHT22;8507;50.056;8.248;2023-07-22T02:56:03;15.20;99.90
16781;DHT22;8507;50.056;8.248;2023-07-22T02:58:29;15.20;99.90
16781;DHT22;8507;50.056;8.248;2023-07-22T03:00:55;15.10;99.90
16781;DHT22;8507;50.056;8.248;2023-07-22T03:03:20;15.00;99.90
16781;DHT22;8507;50.056;8.248;2023-07-22T03:05:46;14.90;99.90
16781;DHT22;8507;50.056;8.248;2023-07-22T03:08:12;14.70;99.90
16781;DHT22;8507;50.056;8.248;2023-07-22T03:10:38;14.50;99.90
16781;DHT22;8507;50.056;8.248;2023-07-22T03:13:04;14.30;99.90
16781;DHT22;8507;50.056;8.248;2023-07-22T03:15:30;14.10;99.90
16781;DHT22;8507;50.056;8.248;2023-07-22T03:17:56;14.10;99.90
16781;DHT22;8507;50.056;8.248;2023-07-22T03:20:25;14.00;99.90
16781;DHT22;8507;50.056;8.248;2023-07-22T03:22:51;14.00;99.90
16781;DHT22;8507;50.056;8.248;2023-07-22T03:25:17;13.90;99.90
16781;DHT22;8507;50.056;8.248;2023-07-22T03:27:44;13.70;99.90
16781;DHT22;8507;50.056;8.248;2023-07-22T03:30:12;13.70;99.90
16781;DHT22;8507;50.056;8.248;2023-07-22T03:32:44;13.50;99.90
16781;DHT22;8507;50.056;8.248;2023-07-22T03:35:10;13.50;99.90
16781;DHT22;8507;50.056;8.248;2023-07-22T03:37:36;13.50;99.90
16781;DHT22;8507;50.056;8.248;2023-07-22T03:40:06;13.40;99.90
16781;DHT22;8507;50.056;8.248;2023-07-22T03:42:34;13.40;99.90
16781;DHT22;8507;50.056;8.248;2023-07-22T03:44:59;13.30;99.90
16781;DHT22;8507;50.056;8.248;2023-07-22T03:47:25;13.30;99.90
16781;DHT22;8507;50.056;8.248;2023-07-22T03:49:50;13.30;99.90
16781;DHT22;8507;50.056;8.248;2023-07-22T03:52:16;13.40;99.90
16781;DHT22;8507;50.056;8.248;2023-07-22T03:54:44;13.40;99.90
16781;DHT22;8507;50.056;8.248;2023-07-22T03:57:09;13.40;99.90
16781;DHT22;8507;50.056;8.248;2023-07-22T03:59:35;13.60;99.90
16781;DHT22;8507;50.056;8.248;2023-07-22T04:02:01;13.90;99.90
16781;DHT22;8507;50.056;8.248;2023-07-22T04:04:27;14.20;99.90
16781;DHT22;8507;50.056;8.248;2023-07-22T04:06:52;14.40;99.90
16781;DHT22;8507;50.056;8.248;2023-07-22T04:09:18;14.70;99.90
16781;DHT22;8507;50.056;8.248;2023-07-22T04:11:43;14.90;99.90
16781;DHT22;8507;50.056;8.248;2023-07-22T04:14:09;15.30;99.90
16781;DHT22;8507;50.056;8.248;2023-07-22T04:16:34;15.50;99.90
16781;DHT22;8507;50.056;8.248;2023-07-22T04:19:00;15.70;99.90
16781;DHT22;8507;50.056;8.248;2023-07-22T04:21:25;15.90;99.90
16781;DHT22;8507;50.056;8.248;2023-07-22T04:23:51;15.60;99.90
16781;DHT22;8507;50.056;8.248;2023-07-22T04:26:16;15.30;99.90
16781;DHT22;8507;50.056;8.248;2023-07-22T04:28:42;15.30;99.90
16781;DHT22;8507;50.056;8.248;2023-07-22T04:31:08;15.20;99.90
16781;DHT22;8507;50.056;8.248;2023-07-22T04:33:34;15.20;99.90
16781;DHT22;8507;50.056;8.248;2023-07-22T04:36:00;15.10;99.90
16781;DHT22;8507;50.056;8.248;2023-07-22T04:38:26;15.00;99.90
16781;DHT22;8507;50.056;8.248;2023-07-22T04:40:52;14.90;99.90
16781;DHT22;8507;50.056;8.248;2023-07-22T04:43:17;14.80;99.90
16781;DHT22;8507;50.056;8.248;2023-07-22T04:45:46;14.80;99.90
16781;DHT22;8507;50.056;8.248;2023-07-22T04:48:16;14.80;99.90
16781;DHT22;8507;50.056;8.248;2023-07-22T04:50:42;14.70;99.90
16781;DHT22;8507;50.056;8.248;2023-07-22T04:53:10;14.70;99.90
16781;DHT22;8507;50.056;8.248;2023-07-22T04:55:38;14.70;99.90
16781;DHT22;8507;50.056;8.248;2023-07-22T04:58:04;14.70;99.90
16781;DHT22;8507;50.056;8.248;2023-07-22T05:00:29;14.60;99.90
16781;DHT22;8507;50.056;8.248;2023-07-22T05:02:55;14.70;99.90
16781;DHT22;8507;50.056;8.248;2023-07-22T05:05:21;14.70;99.90
16781;DHT22;8507;50.056;8.248;2023-07-22T05:07:47;14.80;99.90
16781;DHT22;8507;50.056;8.248;2023-07-22T05:10:15;14.80;99.90
16781;DHT22;8507;50.056;8.248;2023-07-22T05:12:41;15.00;99.90
16781;DHT22;8507;50.056;8.248;2023-07-22T05:15:09;15.20;99.90
16781;DHT22;8507;50.056;8.248;2023-07-22T05:17:34;15.30;99.90
16781;DHT22;8507;50.056;8.248;2023-07-22T05:20:00;15.30;99.90
16781;DHT22;8507;50.056;8.248;2023-07-22T05:22:26;15.30;99.90
16781;DHT22;8507;50.056;8.248;2023-07-22T05:24:51;15.30;99.90
16781;DHT22;8507;50.056;8.248;2023-07-22T05:27:17;15.30;99.90
16781;DHT22;8507;50.056;8.248;2023-07-22T05:29:43;15.50;99.90
16781;DHT22;8507;50.056;8.248;2023-07-22T05:32:09;15.50;99.90
16781;DHT22;8507;50.056;8.248;2023-07-22T05:34:35;15.40;99.90
16781;DHT22;8507;50.056;8.248;2023-07-22T05:37:00;15.50;99.90
16781;DHT22;8507;50.056;8.248;2023-07-22T05:39:26;15.60;99.90
16781;DHT22;8507;50.056;8.248;2023-07-22T05:41:51;15.70;99.90
16781;DHT22;8507;50.056;8.248;2023-07-22T05:44:17;15.70;99.90
16781;DHT22;8507;50.056;8.248;2023-07-22T05:46:42;15.70;99.90
16781;DHT22;8507;50.056;8.248;2023-07-22T05:49:09;15.90;99.90
16781;DHT22;8507;50.056;8.248;2023-07-22T05:51:34;16.10;99.90
16781;DHT22;8507;50.056;8.248;2023-07-22T05:54:00;16.20;99.90
16781;DHT22;8507;50.056;8.248;2023-07-22T05:56:25;16.60;99.90
16781;DHT22;8507;50.056;8.248;2023-07-22T05:58:51;16.50;99.90
16781;DHT22;8507;50.056;8.248;2023-07-22T06:01:17;16.60;99.90
16781;DHT22;8507;50.056;8.248;2023-07-22T06:03:42;16.80;99.90
16781;DHT22;8507;50.056;8.248;2023-07-22T06:06:09;17.00;99.90
16781;DHT22;8507;50.056;8.248;2023-07-22T06:08:35;17.10;99.90
16781;DHT22;8507;50.056;8.248;2023-07-22T06:11:00;17.40;99.90
16781;DHT22;8507;50.056;8.248;2023-07-22T06:13:26;18.00;99.90
16781;DHT22;8507;50.056;8.248;2023-07-22T06:15:52;18.50;99.90
16781;DHT22;8507;50.056;8.248;2023-07-22T06:18:17;18.80;99.90
16781;DHT22;8507;50.056;8.248;2023-07-22T06:20:44;19.20;99.90
16781;DHT22;8507;50.056;8.248;2023-07-22T06:23:09;19.50;99.90
16781;DHT22;8507;50.056;8.248;2023-07-22T06:25:35;19.70;99.90
16781;DHT22;8507;50.056;8.248;2023-07-22T06:28:01;20.00;99.90
16781;DHT22;8507;50.056;8.248;2023-07-22T06:30:26;20.10;99.90
16781;DHT22;8507;50.056;8.248;2023-07-22T06:32:52;20.30;99.90
16781;DHT22;8507;50.056;8.248;2023-07-22T06:35:18;20.50;99.90
16781;DHT22;8507;50.056;8.248;2023-07-22T06:37:44;20.60;99.90
16781;DHT22;8507;50.056;8.248;2023-07-22T06:40:10;20.60;99.90
16781;DHT22;8507;50.056;8.248;2023-07-22T06:42:36;20.60;99.90
16781;DHT22;8507;50.056;8.248;2023-07-22T06:45:02;20.50;99.90
16781;DHT22;8507;50.056;8.248;2023-07-22T06:47:28;20.50;99.90
16781;DHT22;8507;50.056;8.248;2023-07-22T06:49:53;20.50;99.90
16781;DHT22;8507;50.056;8.248;2023-07-22T06:52:19;20.50;99.90
16781;DHT22;8507;50.056;8.248;2023-07-22T06:54:44;20.30;99.90
16781;DHT22;8507;50.056;8.248;2023-07-22T06:57:10;20.20;99.90
16781;DHT22;8507;50.056;8.248;2023-07-22T06:59:35;20.10;99.90
16781;DHT22;8507;50.056;8.248;2023-07-22T07:02:02;20.30;99.90
16781;DHT22;8507;50.056;8.248;2023-07-22T07:04:28;20.30;99.90
16781;DHT22;8507;50.056;8.248;2023-07-22T07:06:54;20.30;99.90
16781;DHT22;8507;50.056;8.248;2023-07-22T07:09:19;20.20;99.90
16781;DHT22;8507;50.056;8.248;2023-07-22T07:11:45;20.30;99.90
16781;DHT22;8507;50.056;8.248;2023-07-22T07:14:10;20.30;99.90
16781;DHT22;8507;50.056;8.248;2023-07-22T07:16:36;20.60;99.90
16781;DHT22;8507;50.056;8.248;2023-07-22T07:19:02;20.70;99.90
16781;DHT22;8507;50.056;8.248;2023-07-22T07:21:28;20.70;99.90
16781;DHT22;8507;50.056;8.248;2023-07-22T07:23:54;20.60;99.90
16781;DHT22;8507;50.056;8.248;2023-07-22T07:26:21;20.60;99.90
16781;DHT22;8507;50.056;8.248;2023-07-22T07:28:47;20.80;99.90
16781;DHT22;8507;50.056;8.248;2023-07-22T07:31:13;20.80;99.90
16781;DHT22;8507;50.056;8.248;2023-07-22T07:33:38;20.90;99.90
16781;DHT22;8507;50.056;8.248;2023-07-22T07:36:04;21.00;99.90
16781;DHT22;8507;50.056;8.248;2023-07-22T07:38:31;21.20;99.90
16781;DHT22;8507;50.056;8.248;2023-07-22T07:40:58;21.50;99.90
16781;DHT22;8507;50.056;8.248;2023-07-22T07:43:24;21.80;99.90
16781;DHT22;8507;50.056;8.248;2023-07-22T07:45:50;22.00;99.90
16781;DHT22;8507;50.056;8.248;2023-07-22T07:48:16;22.10;99.90
16781;DHT22;8507;50.056;8.248;2023-07-22T07:50:42;22.10;99.90
16781;DHT22;8507;50.056;8.248;2023-07-22T07:53:08;22.10;99.90
16781;DHT22;8507;50.056;8.248;2023-07-22T07:55:33;22.60;99.90
16781;DHT22;8507;50.056;8.248;2023-07-22T07:57:59;23.00;99.90
16781;DHT22;8507;50.056;8.248;2023-07-22T08:00:24;23.30;99.90
16781;DHT22;8507;50.056;8.248;2023-07-22T08:02:50;23.50;99.90
16781;DHT22;8507;50.056;8.248;2023-07-22T08:05:16;23.90;99.90
16781;DHT22;8507;50.056;8.248;2023-07-22T08:07:41;24.30;99.90
16781;DHT22;8507;50.056;8.248;2023-07-22T08:10:07;24.50;99.90
16781;DHT22;8507;50.056;8.248;2023-07-22T08:12:34;24.60;99.90
16781;DHT22;8507;50.056;8.248;2023-07-22T08:14:59;24.70;99.90
16781;DHT22;8507;50.056;8.248;2023-07-22T08:17:25;24.90;99.90
16781;DHT22;8507;50.056;8.248;2023-07-22T08:19:51;25.10;99.90
16781;DHT22;8507;50.056;8.248;2023-07-22T08:22:17;24.90;99.90
16781;DHT22;8507;50.056;8.248;2023-07-22T08:24:43;24.60;99.90
16781;DHT22;8507;50.056;8.248;2023-07-22T08:27:09;24.60;99.90
16781;DHT22;8507;50.056;8.248;2023-07-22T08:29:36;24.60;99.90
16781;DHT22;8507;50.056;8.248;2023-07-22T08:32:01;24.60;99.90
16781;DHT22;8507;50.056;8.248;2023-07-22T08:34:27;24.90;99.90
16781;DHT22;8507;50.056;8.248;2023-07-22T08:36:53;24.60;99.90
16781;DHT22;8507;50.056;8.248;2023-07-22T08:39:18;24.50;99.90
16781;DHT22;8507;50.056;8.248;2023-07-22T08:41:48;24.40;99.90
16781;DHT22;8507;50.056;8.248;2023-07-22T08:44:20;24.50;99.90
16781;DHT22;8507;50.056;8.248;2023-07-22T08:46:46;24.20;99.90
16781;DHT22;8507;50.056;8.248;2023-07-22T08:49:15;24.10;99.90
16781;DHT22;8507;50.056;8.248;2023-07-22T08:51:41;24.00;99.90
16781;DHT22;8507;50.056;8.248;2023-07-22T08:54:07;24.10;99.90
16781;DHT22;8507;50.056;8.248;2023-07-22T08:56:34;24.20;99.90
16781;DHT22;8507;50.056;8.248;2023-07-22T08:59:00;24.50;99.90
16781;DHT22;8507;50.056;8.248;2023-07-22T09:01:26;24.60;99.90
16781;DHT22;8507;50.056;8.248;2023-07-22T09:03:53;24.80;99.90
16781;DHT22;8507;50.056;8.248;2023-07-22T09:06:19;25.10;99.90
16781;DHT22;8507;50.056;8.248;2023-07-22T09:08:45;25.30;99.90
16781;DHT22;8507;50.056;8.248;2023-07-22T09:11:11;25.20;99.90
16781;DHT22;8507;50.056;8.248;2023-07-22T09:13:38;25.30;99.90
16781;DHT22;8507;50.056;8.248;2023-07-22T09:16:06;25.30;99.90
16781;DHT22;8507;50.056;8.248;2023-07-22T09:18:35;25.40;99.90
16781;DHT22;8507;50.056;8.248;2023-07-22T09:21:00;25.20;99.90
16781;DHT22;8507;50.056;8.248;2023-07-22T09:23:37;25.30;99.90
16781;DHT22;8507;50.056;8.248;2023-07-22T09:26:14;25.50;99.90
16781;DHT22;8507;50.056;8.248;2023-07-22T09:31:16;25.20;99.90
16781;DHT22;8507;50.056;8.248;2023-07-22T09:33:42;24.90;99.90
16781;DHT22;8507;50.056;8.248;2023-07-22T09:36:10;24.80;99.90
16781;DHT22;8507;50.056;8.248;2023-07-22T09:38:35;24.90;99.90
16781;DHT22;8507;50.056;8.248;2023-07-22T09:41:01;25.00;99.90
16781;DHT22;8507;50.056;8.248;2023-07-22T09:43:26;24.90;99.90
16781;DHT22;8507;50.056;8.248;2023-07-22T09:45:52;24.90;99.90
16781;DHT22;8507;50.056;8.248;2023-07-22T09:48:21;25.30;99.90
16781;DHT22;8507;50.056;8.248;2023-07-22T09:50:55;25.50;99.90
16781;DHT22;8507;50.056;8.248;2023-07-22T09:53:21;25.70;99.90
16781;DHT22;8507;50.056;8.248;2023-07-22T09:55:47;25.90;99.90
16781;DHT22;8507;50.056;8.248;2023-07-22T09:58:13;26.00;99.90
16781;DHT22;8507;50.056;8.248;2023-07-22T10:00:42;25.90;99.90
16781;DHT22;8507;50.056;8.248;2023-07-22T10:03:10;26.30;99.90
16781;DHT22;8507;50.056;8.248;2023-07-22T10:05:38;26.60;99.90
16781;DHT22;8507;50.056;8.248;2023-07-22T10:08:05;26.80;99.90
16781;DHT22;8507;50.056;8.248;2023-07-22T10:10:33;27.10;99.90
16781;DHT22;8507;50.056;8.248;2023-07-22T10:13:00;27.20;99.90
16781;DHT22;8507;50.056;8.248;2023-07-22T10:15:28;27.20;99.90
16781;DHT22;8507;50.056;8.248;2023-07-22T10:17:55;27.20;99.90
16781;DHT22;8507;50.056;8.248;2023-07-22T10:20:22;27.10;99.90
16781;DHT22;8507;50.056;8.248;2023-07-22T10:22:49;26.80;99.90
16781;DHT22;8507;50.056;8.248;2023-07-22T10:25:16;26.40;99.90
16781;DHT22;8507;50.056;8.248;2023-07-22T10:27:42;26.70;99.90
16781;DHT22;8507;50.056;8.248;2023-07-22T10:30:10;27.00;99.90
16781;DHT22;8507;50.056;8.248;2023-07-22T10:32:38;27.10;99.90
16781;DHT22;8507;50.056;8.248;2023-07-22T10:35:07;27.00;99.90
16781;DHT22;8507;50.056;8.248;2023-07-22T10:37:34;26.50;99.90
16781;DHT22;8507;50.056;8.248;2023-07-22T10:40:25;26.20;99.90
16781;DHT22;8507;50.056;8.248;2023-07-22T10:42:59;25.60;99.90
16781;DHT22;8507;50.056;8.248;2023-07-22T10:45:29;25.70;99.90
16781;DHT22;8507;50.056;8.248;2023-07-22T10:48:10;25.80;99.90
16781;DHT22;8507;50.056;8.248;2023-07-22T10:56:23;25.10;99.90
16781;DHT22;8507;50.056;8.248;2023-07-22T11:14:25;24.80;99.90
16781;DHT22;8507;50.056;8.248;2023-07-22T11:16:51;24.90;99.90
16781;DHT22;8507;50.056;8.248;2023-07-22T11:19:19;25.00;99.90
16781;DHT22;8507;50.056;8.248;2023-07-22T11:21:46;25.20;99.90
16781;DHT22;8507;50.056;8.248;2023-07-22T11:24:12;25.40;99.90
16781;DHT22;8507;50.056;8.248;2023-07-22T11:26:39;26.00;99.90
16781;DHT22;8507;50.056;8.248;2023-07-22T11:29:05;26.00;99.90
16781;DHT22;8507;50.056;8.248;2023-07-22T11:31:36;26.40;99.90
16781;DHT22;8507;50.056;8.248;2023-07-22T11:34:18;26.50;99.90
16781;DHT22;8507;50.056;8.248;2023-07-22T11:36:45;26.50;99.90
16781;DHT22;8507;50.056;8.248;2023-07-22T11:39:12;26.40;99.90
16781;DHT22;8507;50.056;8.248;2023-07-22T11:41:39;26.50;99.90
16781;DHT22;8507;50.056;8.248;2023-07-22T11:44:07;26.50;99.90
16781;DHT22;8507;50.056;8.248;2023-07-22T11:47:02;26.50;99.90
16781;DHT22;8507;50.056;8.248;2023-07-22T11:49:46;26.40;99.90
16781;DHT22;8507;50.056;8.248;2023-07-22T11:52:16;26.60;99.90
16781;DHT22;8507;50.056;8.248;2023-07-22T11:54:46;26.70;99.90
16781;DHT22;8507;50.056;8.248;2023-07-22T11:57:23;26.80;99.90
16781;DHT22;8507;50.056;8.248;2023-07-22T11:59:51;27.10;99.90
16781;DHT22;8507;50.056;8.248;2023-07-22T12:02:21;27.30;99.90
16781;DHT22;8507;50.056;8.248;2023-07-22T12:04:55;27.50;99.90
16781;DHT22;8507;50.056;8.248;2023-07-22T12:07:26;27.40;99.90
16781;DHT22;8507;50.056;8.248;2023-07-22T12:09:53;27.40;99.90
16781;DHT22;8507;50.056;8.248;2023-07-22T12:12:19;27.30;99.90
16781;DHT22;8507;50.056;8.248;2023-07-22T12:14:44;27.40;99.90
16781;DHT22;8507;50.056;8.248;2023-07-22T12:17:10;27.20;99.90
16781;DHT22;8507;50.056;8.248;2023-07-22T12:19:35;27.30;99.90
16781;DHT22;8507;50.056;8.248;2023-07-22T12:22:01;27.60;99.90
16781;DHT22;8507;50.056;8.248;2023-07-22T12:24:28;27.60;99.90
16781;DHT22;8507;50.056;8.248;2023-07-22T12:26:53;27.30;99.90
16781;DHT22;8507;50.056;8.248;2023-07-22T12:29:19;26.90;99.90
16781;DHT22;8507;50.056;8.248;2023-07-22T12:31:45;26.70;99.90
16781;DHT22;8507;50.056;8.248;2023-07-22T12:34:11;26.60;99.90
16781;DHT22;8507;50.056;8.248;2023-07-22T12:36:36;26.50;99.90
16781;DHT22;8507;50.056;8.248;2023-07-22T12:39:02;26.80;99.90
16781;DHT22;8507;50.056;8.248;2023-07-22T12:41:28;26.90;99.90
16781;DHT22;8507;50.056;8.248;2023-07-22T12:43:53;26.70;99.90
16781;DHT22;8507;50.056;8.248;2023-07-22T12:46:19;26.80;99.90
16781;DHT22;8507;50.056;8.248;2023-07-22T12:48:44;26.80;99.90
16781;DHT22;8507;50.056;8.248;2023-07-22T12:51:10;27.00;99.90
16781;DHT22;8507;50.056;8.248;2023-07-22T12:53:36;26.80;99.90
16781;DHT22;8507;50.056;8.248;2023-07-22T12:56:02;26.70;99.90
16781;DHT22;8507;50.056;8.248;2023-07-22T12:58:28;27.00;99.90
16781;DHT22;8507;50.056;8.248;2023-07-22T13:00:54;27.10;99.90
16781;DHT22;8507;50.056;8.248;2023-07-22T13:03:20;27.40;99.90
16781;DHT22;8507;50.056;8.248;2023-07-22T13:05:45;27.70;99.90
16781;DHT22;8507;50.056;8.248;2023-07-22T13:08:11;27.70;99.90
16781;DHT22;8507;50.056;8.248;2023-07-22T13:10:36;27.30;99.90
16781;DHT22;8507;50.056;8.248;2023-07-22T13:13:05;27.50;99.90
16781;DHT22;8507;50.056;8.248;2023-07-22T13:15:31;27.30;99.90
16781;DHT22;8507;50.056;8.248;2023-07-22T13:17:57;27.10;99.90
16781;DHT22;8507;50.056;8.248;2023-07-22T13:20:22;27.20;99.90
16781;DHT22;8507;50.056;8.248;2023-07-22T13:22:48;27.30;99.90
16781;DHT22;8507;50.056;8.248;2023-07-22T13:25:13;27.40;99.90
16781;DHT22;8507;50.056;8.248;2023-07-22T13:27:39;27.30;99.90
16781;DHT22;8507;50.056;8.248;2023-07-22T13:30:09;27.10;99.90
16781;DHT22;8507;50.056;8.248;2023-07-22T13:32:34;27.10;99.90
16781;DHT22;8507;50.056;8.248;2023-07-22T13:35:00;26.90;99.90
16781;DHT22;8507;50.056;8.248;2023-07-22T13:37:26;26.70;99.90
16781;DHT22;8507;50.056;8.248;2023-07-22T13:39:51;26.90;99.90
16781;DHT22;8507;50.056;8.248;2023-07-22T13:42:18;27.20;99.90
16781;DHT22;8507;50.056;8.248;2023-07-22T13:44:43;27.30;99.90
16781;DHT22;8507;50.056;8.248;2023-07-22T13:47:09;27.10;99.90
16781;DHT22;8507;50.056;8.248;2023-07-22T13:49:34;27.10;99.90
16781;DHT22;8507;50.056;8.248;2023-07-22T13:52:00;27.50;99.90
16781;DHT22;8507;50.056;8.248;2023-07-22T13:54:25;27.40;99.90
16781;DHT22;8507;50.056;8.248;2023-07-22T13:56:51;27.70;99.90
16781;DHT22;8507;50.056;8.248;2023-07-22T13:59:16;27.20;99.90
16781;DHT22;8507;50.056;8.248;2023-07-22T14:01:42;27.20;99.90
16781;DHT22;8507;50.056;8.248;2023-07-22T14:04:08;27.00;99.90
16781;DHT22;8507;50.056;8.248;2023-07-22T14:06:34;27.30;99.90
16781;DHT22;8507;50.056;8.248;2023-07-22T14:09:00;27.40;99.90
16781;DHT22;8507;50.056;8.248;2023-07-22T14:11:25;27.20;99.90
16781;DHT22;8507;50.056;8.248;2023-07-22T14:13:51;27.30;99.90
16781;DHT22;8507;50.056;8.248;2023-07-22T14:16:19;27.30;99.90
16781;DHT22;8507;50.056;8.248;2023-07-22T14:18:45;27.10;99.90
16781;DHT22;8507;50.056;8.248;2023-07-22T14:21:11;27.20;99.90
16781;DHT22;8507;50.056;8.248;2023-07-22T14:23:37;27.10;99.90
16781;DHT22;8507;50.056;8.248;2023-07-22T14:26:03;27.10;99.90
16781;DHT22;8507;50.056;8.248;2023-07-22T14:28:28;27.00;99.90
16781;DHT22;8507;50.056;8.248;2023-07-22T14:30:54;26.60;99.90
16781;DHT22;8507;50.056;8.248;2023-07-22T14:33:19;26.60;99.90
16781;DHT22;8507;50.056;8.248;2023-07-22T14:35:45;26.80;99.90
16781;DHT22;8507;50.056;8.248;2023-07-22T14:38:10;27.00;99.90
16781;DHT22;8507;50.056;8.248;2023-07-22T14:40:36;27.20;99.90
16781;DHT22;8507;50.056;8.248;2023-07-22T14:43:02;27.10;99.90
16781;DHT22;8507;50.056;8.248;2023-07-22T14:45:28;27.10;99.90
16781;DHT22;8507;50.056;8.248;2023-07-22T14:47:53;26.90;99.90
16781;DHT22;8507;50.056;8.248;2023-07-22T14:50:19;27.00;99.90
16781;DHT22;8507;50.056;8.248;2023-07-22T14:52:44;27.10;99.90
16781;DHT22;8507;50.056;8.248;2023-07-22T14:55:10;27.30;99.90
16781;DHT22;8507;50.056;8.248;2023-07-22T14:57:36;27.30;99.90
16781;DHT22;8507;50.056;8.248;2023-07-22T15:00:02;27.20;99.90
16781;DHT22;8507;50.056;8.248;2023-07-22T15:02:27;27.20;99.90
16781;DHT22;8507;50.056;8.248;2023-07-22T15:04:53;27.00;99.90
16781;DHT22;8507;50.056;8.248;2023-07-22T15:07:18;27.10;99.90
16781;DHT22;8507;50.056;8.248;2023-07-22T15:09:44;27.00;99.90
16781;DHT22;8507;50.056;8.248;2023-07-22T15:12:09;27.00;99.90
16781;DHT22;8507;50.056;8.248;2023-07-22T15:14:36;26.80;99.90
16781;DHT22;8507;50.056;8.248;2023-07-22T15:17:02;26.70;99.90
16781;DHT22;8507;50.056;8.248;2023-07-22T15:19:27;26.80;99.90
16781;DHT22;8507;50.056;8.248;2023-07-22T15:21:53;26.80;99.90
16781;DHT22;8507;50.056;8.248;2023-07-22T15:24:19;26.90;99.90
16781;DHT22;8507;50.056;8.248;2023-07-22T15:26:44;26.80;99.90
16781;DHT22;8507;50.056;8.248;2023-07-22T15:29:10;26.90;99.90
16781;DHT22;8507;50.056;8.248;2023-07-22T15:31:35;26.80;99.90
16781;DHT22;8507;50.056;8.248;2023-07-22T15:34:01;26.80;99.90
16781;DHT22;8507;50.056;8.248;2023-07-22T15:36:26;26.70;99.90
16781;DHT22;8507;50.056;8.248;2023-07-22T15:38:52;26.70;99.90
16781;DHT22;8507;50.056;8.248;2023-07-22T15:41:18;26.90;99.90
16781;DHT22;8507;50.056;8.248;2023-07-22T15:43:43;26.60;99.90
16781;DHT22;8507;50.056;8.248;2023-07-22T15:46:09;26.90;99.90
16781;DHT22;8507;50.056;8.248;2023-07-22T15:48:35;27.10;99.90
16781;DHT22;8507;50.056;8.248;2023-07-22T15:51:00;27.40;99.90
16781;DHT22;8507;50.056;8.248;2023-07-22T15:53:26;27.40;99.90
16781;DHT22;8507;50.056;8.248;2023-07-22T15:55:51;27.30;99.90
16781;DHT22;8507;50.056;8.248;2023-07-22T15:58:17;27.30;99.90
16781;DHT22;8507;50.056;8.248;2023-07-22T16:00:43;27.40;99.90
16781;DHT22;8507;50.056;8.248;2023-07-22T16:03:09;27.30;99.90